createdAt,value
2024-02-28T00:00:20.726Z,42.13
2024-02-28T00:02:48.864Z,41.63
2024-02-28T00:05:17.209Z,40.28
2024-02-28T00:07:45.808Z,40.53
2024-02-28T00:10:15.567Z,41.67
2024-02-28T00:12:48.480Z,45.42
2024-02-28T00:15:18.280Z,43.92
2024-02-28T00:17:46.804Z,48.00
2024-02-28T00:20:15.396Z,46.50
2024-02-28T00:22:44.091Z,43.50
2024-02-28T00:25:12.588Z,46.13
2024-02-28T00:27:42.217Z,47.40
2024-02-28T00:30:11.299Z,51.47
2024-02-28T00:32:39.477Z,47.28
2024-02-28T00:35:08.406Z,47.63
2024-02-28T00:37:36.590Z,47.03
2024-02-28T00:40:05.331Z,45.35
2024-02-28T00:42:33.490Z,48.90
2024-02-28T00:45:03.957Z,49.50
2024-02-28T00:47:32.482Z,52.08
2024-02-28T00:50:00.747Z,54.75
2024-02-28T00:52:28.935Z,52.65
2024-02-28T00:54:57.046Z,51.13
2024-02-28T00:57:25.508Z,53.25
2024-02-28T00:59:55.836Z,50.33
2024-02-28T01:02:25.658Z,55.97
2024-02-28T01:04:56.189Z,52.47
2024-02-28T01:07:24.326Z,51.58
2024-02-28T01:09:52.432Z,52.45
2024-02-28T01:12:20.621Z,48.17
2024-02-28T01:14:48.781Z,49.88
2024-02-28T01:17:16.830Z,51.85
2024-02-28T01:19:46.350Z,51.47
2024-02-28T01:22:14.486Z,49.95
2024-02-28T01:24:42.756Z,52.20
2024-02-28T01:27:13.130Z,50.17
2024-02-28T01:29:41.213Z,54.38
2024-02-28T01:32:09.513Z,51.63
2024-02-28T01:34:37.685Z,55.72
2024-02-28T01:37:07.271Z,52.97
2024-02-28T01:39:35.412Z,54.20
2024-02-28T01:42:03.661Z,48.65
2024-02-28T01:44:31.997Z,49.88
2024-02-28T01:47:01.078Z,49.35
2024-02-28T01:49:29.379Z,51.08
2024-02-28T01:51:58.726Z,50.20
2024-02-28T01:54:33.836Z,50.35
2024-02-28T01:57:03.341Z,51.60
2024-02-28T01:59:33.853Z,48.97
2024-02-28T02:02:02.199Z,49.22
2024-02-28T02:04:30.893Z,53.95
2024-02-28T02:07:01.087Z,51.40
2024-02-28T02:09:30.999Z,51.83
2024-02-28T02:11:59.127Z,58.00
2024-02-28T02:14:27.238Z,52.45
2024-02-28T02:16:55.358Z,50.92
2024-02-28T02:19:23.680Z,50.22
2024-02-28T02:21:56.024Z,48.20
2024-02-28T02:24:25.758Z,56.22
2024-02-28T02:26:57.961Z,56.38
2024-02-28T02:29:26.162Z,53.40
2024-02-28T02:31:54.343Z,51.33
2024-02-28T02:34:22.517Z,50.97
2024-02-28T02:36:50.892Z,56.63
2024-02-28T02:39:19.218Z,56.45
2024-02-28T02:41:48.894Z,51.63
2024-02-28T02:44:17.035Z,52.88
2024-02-28T02:46:45.255Z,52.30
2024-02-28T02:49:13.384Z,53.42
2024-02-28T02:51:43.598Z,53.22
2024-02-28T02:54:11.972Z,52.17
2024-02-28T02:56:43.116Z,52.95
2024-02-28T02:59:13.226Z,49.67
2024-02-28T03:01:41.366Z,51.45
2024-02-28T03:04:09.735Z,56.90
2024-02-28T03:06:38.257Z,54.25
2024-02-28T03:09:07.872Z,55.45
2024-02-28T03:11:36.517Z,54.17
2024-02-28T03:14:04.995Z,52.20
2024-02-28T03:16:38.933Z,51.95
2024-02-28T03:19:07.413Z,53.95
2024-02-28T03:21:35.591Z,57.38
2024-02-28T03:24:03.978Z,52.70
2024-02-28T03:26:32.084Z,49.03
2024-02-28T03:29:00.451Z,52.08
2024-02-28T03:31:28.642Z,52.25
2024-02-28T03:33:58.356Z,50.67
2024-02-28T03:36:26.851Z,47.83
2024-02-28T03:38:55.007Z,48.92
2024-02-28T03:41:23.149Z,48.13
2024-02-28T03:43:51.250Z,49.88
2024-02-28T03:46:19.956Z,50.20
2024-02-28T03:48:48.110Z,51.47
2024-02-28T03:51:17.623Z,49.83
2024-02-28T03:53:45.779Z,49.80
2024-02-28T03:56:13.957Z,45.40
2024-02-28T03:58:42.712Z,48.97
2024-02-28T04:01:10.914Z,48.65
2024-02-28T04:03:39.172Z,49.10
2024-02-28T04:06:07.415Z,47.50
2024-02-28T04:08:37.048Z,52.42
2024-02-28T04:11:05.709Z,48.97
2024-02-28T04:13:34.036Z,45.67
2024-02-28T04:16:04.355Z,50.33
2024-02-28T04:18:32.563Z,47.80
2024-02-28T04:21:00.710Z,46.97
2024-02-28T04:23:31.387Z,51.38
2024-02-28T04:26:01.119Z,52.70
2024-02-28T04:28:29.411Z,50.47
2024-02-28T04:30:58.211Z,47.38
2024-02-28T04:33:26.581Z,47.65
2024-02-28T04:35:54.737Z,53.03
2024-02-28T04:38:22.892Z,47.25
2024-02-28T04:40:51.063Z,48.88
2024-02-28T04:43:20.741Z,45.58
2024-02-28T04:45:49.090Z,51.53
2024-02-28T04:48:17.348Z,51.03
2024-02-28T04:50:45.580Z,50.53
2024-02-28T04:53:12.628Z,49.80
2024-02-28T04:55:40.798Z,46.30
2024-02-28T04:58:08.933Z,47.28
2024-02-28T05:00:38.503Z,45.67
2024-02-28T05:03:07.068Z,47.28
2024-02-28T05:05:35.175Z,49.33
2024-02-28T05:08:03.312Z,48.20
2024-02-28T05:10:31.585Z,50.80
2024-02-28T05:13:00.514Z,45.95
2024-02-28T05:15:29.675Z,48.28
2024-02-28T05:17:59.136Z,48.38
2024-02-28T05:20:27.150Z,48.80
2024-02-28T05:22:55.260Z,48.78
2024-02-28T05:25:23.654Z,48.67
2024-02-28T05:27:52.047Z,47.72
2024-02-28T05:30:20.816Z,53.42
2024-02-28T05:32:49.021Z,48.03
2024-02-28T05:35:18.712Z,50.28
2024-02-28T05:37:47.788Z,50.60
2024-02-28T05:40:15.862Z,50.30
2024-02-28T05:42:44.235Z,52.17
2024-02-28T05:45:13.790Z,49.25
2024-02-28T05:47:42.043Z,51.90
2024-02-28T05:50:11.569Z,51.65
2024-02-28T05:52:43.509Z,54.97
2024-02-28T05:55:11.944Z,53.00
2024-02-28T05:57:40.290Z,54.75
2024-02-28T06:00:10.966Z,48.33
2024-02-28T06:02:39.336Z,48.92
2024-02-28T06:05:08.476Z,51.95
2024-02-28T06:07:36.608Z,55.70
2024-02-28T06:10:06.884Z,58.67
2024-02-28T06:12:35.047Z,53.67
2024-02-28T06:15:03.752Z,52.65
2024-02-28T06:17:31.892Z,55.25
2024-02-28T06:20:00.101Z,55.20
2024-02-28T06:22:28.485Z,53.28
2024-02-28T06:24:56.509Z,52.20
2024-02-28T06:27:27.806Z,52.92
2024-02-28T06:29:55.993Z,50.70
2024-02-28T06:32:27.258Z,54.63
2024-02-28T06:34:55.404Z,53.88
2024-02-28T06:37:23.649Z,53.17
2024-02-28T06:39:51.845Z,53.47
2024-02-28T06:42:20.004Z,51.90
2024-02-28T06:44:49.812Z,56.78
2024-02-28T06:47:17.844Z,55.90
2024-02-28T06:49:46.024Z,61.60
2024-02-28T06:52:14.450Z,63.42
2024-02-28T06:54:42.502Z,55.80
2024-02-28T06:57:12.573Z,54.78
2024-02-28T06:59:40.662Z,50.78
2024-02-28T07:02:10.213Z,53.15
2024-02-28T07:04:38.778Z,52.80
2024-02-28T07:07:09.906Z,50.40
2024-02-28T07:09:41.665Z,49.17
2024-02-28T07:12:10.077Z,50.88
2024-02-28T07:14:38.835Z,50.28
2024-02-28T07:17:08.138Z,52.25
2024-02-28T07:19:38.193Z,46.58
2024-02-28T07:22:07.760Z,51.53
2024-02-28T07:24:35.956Z,54.25
2024-02-28T07:27:04.260Z,51.78
2024-02-28T07:29:34.363Z,48.97
2024-02-28T07:32:03.576Z,49.55
2024-02-28T07:34:31.951Z,49.72
2024-02-28T07:37:02.083Z,50.05
2024-02-28T07:39:30.870Z,49.08
2024-02-28T07:41:59.462Z,47.58
2024-02-28T07:44:31.831Z,57.92
2024-02-28T07:47:00.525Z,46.75
2024-02-28T07:49:29.150Z,45.70
2024-02-28T07:51:57.848Z,48.88
2024-02-28T07:54:28.352Z,46.88
2024-02-28T07:56:56.504Z,42.38
2024-02-28T07:59:24.614Z,45.83
2024-02-28T08:01:55.595Z,45.13
2024-02-28T08:04:23.844Z,39.40
2024-02-28T08:06:52.004Z,42.88
2024-02-28T08:09:20.830Z,43.83
2024-02-28T08:11:50.372Z,40.45
2024-02-28T08:14:18.707Z,41.83
2024-02-28T08:16:46.942Z,42.63
2024-02-28T08:19:15.071Z,40.97
2024-02-28T08:21:45.633Z,41.42
2024-02-28T08:24:15.073Z,45.53
2024-02-28T08:26:43.352Z,44.80
2024-02-28T08:29:12.880Z,42.15
2024-02-28T08:31:47.894Z,42.20
2024-02-28T08:34:16.109Z,44.22
2024-02-28T08:36:44.340Z,43.20
2024-02-28T08:39:12.520Z,42.22
2024-02-28T08:41:40.836Z,39.00
2024-02-28T08:44:09.003Z,40.97
2024-02-28T08:46:38.511Z,41.63
2024-02-28T08:49:06.741Z,40.15
2024-02-28T08:51:37.729Z,42.30
2024-02-28T08:54:05.985Z,49.40
2024-02-28T08:56:34.339Z,44.05
2024-02-28T08:59:03.866Z,42.15
2024-02-28T09:01:32.171Z,54.63
2024-02-28T09:04:01.927Z,45.35
2024-02-28T09:06:33.010Z,46.03
2024-02-28T09:09:01.454Z,43.58
2024-02-28T09:11:29.650Z,44.83
2024-02-28T09:13:58.242Z,38.60
2024-02-28T09:16:26.419Z,46.17
2024-02-28T09:18:54.558Z,41.17
2024-02-28T09:21:27.169Z,49.92
2024-02-28T09:23:55.343Z,43.42
2024-02-28T09:26:23.627Z,44.75
2024-02-28T09:28:51.705Z,47.10
2024-02-28T09:31:20.714Z,41.28
2024-02-28T09:33:50.517Z,45.88
2024-02-28T09:36:18.699Z,46.72
2024-02-28T09:38:48.226Z,50.38
2024-02-28T09:41:18.031Z,43.00
2024-02-28T09:43:48.721Z,43.55
2024-02-28T09:46:17.324Z,38.38
2024-02-28T09:48:49.630Z,41.15
2024-02-28T09:51:20.758Z,39.25
2024-02-28T09:53:50.502Z,39.72
2024-02-28T09:56:19.711Z,44.75
2024-02-28T09:58:48.680Z,43.10
2024-02-28T10:01:18.693Z,39.90
2024-02-28T10:03:49.981Z,41.40
2024-02-28T10:06:18.227Z,42.95
2024-02-28T10:08:48.500Z,42.30
2024-02-28T10:11:25.384Z,43.60
2024-02-28T10:13:56.518Z,41.42
2024-02-28T10:16:25.962Z,40.83
2024-02-28T10:18:54.811Z,38.95
2024-02-28T10:21:23.806Z,39.13
2024-02-28T10:23:52.304Z,39.45
2024-02-28T10:26:20.620Z,39.83
2024-02-28T10:28:50.112Z,38.88
2024-02-28T10:31:18.357Z,43.67
2024-02-28T10:33:47.063Z,45.88
2024-02-28T10:36:19.516Z,38.53
2024-02-28T10:38:47.826Z,38.05
2024-02-28T10:41:19.053Z,37.95
2024-02-28T10:43:47.452Z,35.78
2024-02-28T10:46:34.905Z,36.03
2024-02-28T10:49:05.601Z,35.57
2024-02-28T10:51:37.638Z,37.13
2024-02-28T10:54:12.651Z,36.20
2024-02-28T10:56:42.139Z,35.60
2024-02-28T10:59:12.430Z,37.95
2024-02-28T11:01:44.957Z,33.75
2024-02-28T11:04:15.657Z,37.67
2024-02-28T11:06:53.019Z,38.92
2024-02-28T11:09:24.739Z,38.72
2024-02-28T11:11:55.181Z,39.00
2024-02-28T11:14:26.020Z,40.22
2024-02-28T11:17:04.471Z,38.03
2024-02-28T11:19:33.964Z,35.83
2024-02-28T11:22:05.337Z,40.42
2024-02-28T11:24:38.285Z,39.80
2024-02-28T11:27:14.542Z,36.55
2024-02-28T11:29:42.808Z,37.17
2024-02-28T11:32:13.643Z,39.80
2024-02-28T11:34:46.340Z,38.83
2024-02-28T11:37:14.566Z,39.85
2024-02-28T11:39:42.747Z,38.15
2024-02-28T11:42:12.403Z,36.45
2024-02-28T11:44:41.273Z,36.08
2024-02-28T11:47:12.569Z,38.35
2024-02-28T11:49:40.737Z,33.92
2024-02-28T11:52:10.682Z,37.80
2024-02-28T11:54:39.061Z,40.20
2024-02-28T11:57:08.544Z,39.13
2024-02-28T11:59:36.707Z,38.30
2024-02-28T12:02:15.733Z,38.78
2024-02-28T12:04:44.695Z,38.38
2024-02-28T12:07:13.464Z,39.80
2024-02-28T12:09:42.791Z,38.35
2024-02-28T12:12:11.505Z,36.60
2024-02-28T12:14:40.289Z,40.92
2024-02-28T12:17:10.175Z,38.38
2024-02-28T12:19:41.011Z,36.85
2024-02-28T12:22:09.596Z,40.83
2024-02-28T12:24:38.573Z,37.08
2024-02-28T12:27:07.222Z,35.42
2024-02-28T12:29:35.383Z,33.53
2024-02-28T12:32:04.560Z,34.67
2024-02-28T12:34:32.805Z,36.30
2024-02-28T12:37:02.348Z,37.42
2024-02-28T12:39:30.534Z,36.20
2024-02-28T12:42:00.825Z,35.80
2024-02-28T12:44:28.999Z,34.03
2024-02-28T12:47:00.522Z,33.25
2024-02-28T12:49:28.742Z,30.90
2024-02-28T12:52:01.186Z,33.55
2024-02-28T12:54:28.388Z,35.47
2024-02-28T12:56:56.543Z,36.78
2024-02-28T12:59:24.673Z,34.17
2024-02-28T13:01:54.547Z,34.33
2024-02-28T13:04:22.883Z,39.92
2024-02-28T13:06:51.419Z,32.22
2024-02-28T13:09:23.728Z,34.67
2024-02-28T13:11:55.175Z,32.17
2024-02-28T13:14:23.343Z,33.90
2024-02-28T13:16:55.010Z,33.63
2024-02-28T13:19:23.218Z,37.17
2024-02-28T13:21:51.411Z,35.03
2024-02-28T13:24:21.327Z,34.25
2024-02-28T13:26:52.339Z,40.90
2024-02-28T13:29:20.472Z,36.72
2024-02-28T13:31:49.897Z,34.22
2024-02-28T13:34:18.124Z,38.60
2024-02-28T13:36:46.365Z,42.55
2024-02-28T13:39:14.622Z,36.95
2024-02-28T13:41:44.879Z,39.63
2024-02-28T13:44:13.072Z,41.38
2024-02-28T13:46:44.600Z,38.47
2024-02-28T13:49:13.424Z,40.08
2024-02-28T13:51:42.852Z,33.83
2024-02-28T13:54:11.209Z,36.22
2024-02-28T13:56:39.304Z,33.97
2024-02-28T13:59:11.589Z,38.67
2024-02-28T14:01:39.991Z,39.47
2024-02-28T14:04:08.531Z,36.20
2024-02-28T14:06:36.827Z,36.17
2024-02-28T14:09:05.984Z,34.63
2024-02-28T14:11:34.167Z,36.42
2024-02-28T14:14:02.466Z,36.47
2024-02-28T14:16:33.378Z,37.25
2024-02-28T14:19:02.354Z,37.03
2024-02-28T14:21:30.554Z,39.72
2024-02-28T14:23:59.973Z,36.10
2024-02-28T14:26:28.281Z,39.55
2024-02-28T14:28:56.376Z,41.17
2024-02-28T14:31:25.174Z,37.75
2024-02-28T14:33:55.840Z,39.20
2024-02-28T14:36:25.201Z,37.97
2024-02-28T14:38:53.707Z,38.83
2024-02-28T14:41:22.600Z,38.17
2024-02-28T14:43:50.869Z,40.13
2024-02-28T14:46:22.682Z,36.13
2024-02-28T14:48:53.088Z,35.70
2024-02-28T14:51:22.914Z,36.60
2024-02-28T14:53:51.415Z,40.03
2024-02-28T14:56:20.883Z,36.30
2024-02-28T14:58:49.003Z,38.70
2024-02-28T15:01:17.264Z,36.53
2024-02-28T15:03:47.178Z,41.30
2024-02-28T15:06:18.155Z,38.30
2024-02-28T15:08:48.089Z,42.88
2024-02-28T15:11:20.290Z,39.67
2024-02-28T15:13:49.128Z,43.90
2024-02-28T15:16:18.193Z,40.70
2024-02-28T15:18:46.957Z,36.35
2024-02-28T15:21:15.095Z,40.25
2024-02-28T15:23:43.152Z,36.30
2024-02-28T15:26:12.657Z,41.08
2024-02-28T15:28:40.761Z,38.92
2024-02-28T15:31:09.014Z,39.65
2024-02-28T15:33:37.385Z,40.65
2024-02-28T15:36:06.196Z,40.33
2024-02-28T15:38:34.946Z,38.95
2024-02-28T15:41:03.163Z,37.88
2024-02-28T15:43:32.976Z,39.08
2024-02-28T15:46:01.152Z,41.33
2024-02-28T15:48:31.054Z,44.67
2024-02-28T15:51:00.527Z,39.75
2024-02-28T15:53:28.718Z,42.53
2024-02-28T15:55:56.865Z,44.47
2024-02-28T15:58:25.232Z,43.17
2024-02-28T16:00:54.866Z,45.13
2024-02-28T16:03:23.006Z,45.60
2024-02-28T16:05:51.398Z,42.03
2024-02-28T16:08:21.014Z,40.10
2024-02-28T16:10:49.304Z,44.25
2024-02-28T16:13:17.817Z,45.38
2024-02-28T16:15:46.073Z,47.75
2024-02-28T16:18:15.784Z,47.63
2024-02-28T16:20:46.975Z,47.60
2024-02-28T16:23:18.170Z,48.65
2024-02-28T16:25:47.809Z,49.95
2024-02-28T16:28:15.952Z,43.75
2024-02-28T16:30:47.822Z,47.67
2024-02-28T16:33:18.409Z,42.75
2024-02-28T16:35:46.684Z,48.80
2024-02-28T16:38:15.902Z,50.15
2024-02-28T16:40:46.221Z,48.92
2024-02-28T16:43:14.360Z,39.90
2024-02-28T16:45:42.544Z,47.03
2024-02-28T16:48:11.452Z,47.10
2024-02-28T16:50:41.069Z,51.17
2024-02-28T16:53:09.501Z,45.92
2024-02-28T16:55:37.792Z,50.83
2024-02-28T16:58:06.525Z,46.88
2024-02-28T17:00:35.327Z,44.80
2024-02-28T17:03:03.800Z,48.97
2024-02-28T17:05:34.380Z,52.33
2024-02-28T17:08:04.559Z,52.10
2024-02-28T17:10:34.334Z,50.60
2024-02-28T17:13:04.999Z,49.10
2024-02-28T17:15:33.173Z,45.42
2024-02-28T17:18:03.978Z,50.58
2024-02-28T17:20:32.239Z,48.15
2024-02-28T17:23:00.501Z,47.15
2024-02-28T17:25:30.006Z,46.53
2024-02-28T17:27:58.202Z,48.30
2024-02-28T17:30:26.471Z,47.88
2024-02-28T17:32:54.718Z,48.38
2024-02-28T17:35:23.054Z,47.05
2024-02-28T17:37:51.291Z,49.50
2024-02-28T17:40:19.581Z,46.22
2024-02-28T17:42:49.087Z,47.83
2024-02-28T17:45:18.253Z,51.25
2024-02-28T17:47:46.762Z,49.67
2024-02-28T17:50:16.495Z,51.15
2024-02-28T17:52:46.885Z,49.42
2024-02-28T17:55:16.708Z,50.75
2024-02-28T17:57:47.165Z,65.20
2024-02-28T18:00:22.901Z,49.25
2024-02-28T18:02:51.694Z,51.83
2024-02-28T18:05:20.147Z,48.85
2024-02-28T18:07:48.240Z,51.67
2024-02-28T18:10:16.829Z,50.78
2024-02-28T18:12:45.069Z,50.90
2024-02-28T18:15:14.148Z,55.22
2024-02-28T18:17:43.614Z,56.55
2024-02-28T18:20:12.485Z,66.63
2024-02-28T18:22:40.757Z,61.38
2024-02-28T18:25:09.422Z,54.45
2024-02-28T18:27:37.996Z,63.38
2024-02-28T18:30:08.989Z,48.30
2024-02-28T18:32:37.104Z,55.13
2024-02-28T18:35:07.228Z,50.58
2024-02-28T18:37:35.368Z,53.80
2024-02-28T18:40:05.886Z,51.67
2024-02-28T18:42:34.255Z,55.97
2024-02-28T18:47:33.944Z,50.13
2024-02-28T18:50:02.099Z,58.80
2024-02-28T18:52:31.622Z,53.38
2024-02-28T18:54:59.817Z,51.55
2024-02-28T18:57:27.959Z,55.75
2024-02-28T19:00:00.382Z,52.75
2024-02-28T19:02:28.553Z,53.50
2024-02-28T19:04:56.722Z,61.55
2024-02-28T19:07:25.080Z,55.80
2024-02-28T19:09:54.714Z,58.00
2024-02-28T19:12:22.820Z,52.72
2024-02-28T19:14:50.920Z,56.60
2024-02-28T19:17:18.949Z,53.17
2024-02-28T19:19:47.356Z,52.78
2024-02-28T19:22:15.589Z,53.92
2024-02-28T19:24:43.781Z,52.03
2024-02-28T19:27:13.237Z,53.58
2024-02-28T19:29:41.385Z,55.40
2024-02-28T19:32:09.543Z,53.95
2024-02-28T19:34:37.905Z,53.45
2024-02-28T19:37:06.271Z,60.85
2024-02-28T19:39:34.618Z,54.67
2024-02-28T19:42:02.799Z,52.25
2024-02-28T19:44:32.456Z,58.63
2024-02-28T19:47:00.512Z,57.42
2024-02-28T19:49:28.599Z,54.22
2024-02-28T19:51:56.832Z,52.83
2024-02-28T19:54:24.986Z,55.85
2024-02-28T19:56:53.282Z,53.20
2024-02-28T19:59:21.347Z,54.10
2024-02-28T20:01:51.003Z,51.38
2024-02-28T20:04:19.205Z,58.70
2024-02-28T20:06:47.454Z,56.53
2024-02-28T20:09:15.784Z,56.35
2024-02-28T20:11:44.020Z,50.05
2024-02-28T20:14:12.208Z,50.25
2024-02-28T20:16:43.383Z,52.10
2024-02-28T20:19:13.071Z,55.90
2024-02-28T20:21:41.312Z,55.38
2024-02-28T20:24:09.676Z,57.25
2024-02-28T20:26:37.922Z,63.03
2024-02-28T20:29:07.755Z,62.63
2024-02-28T20:31:36.005Z,57.28
2024-02-28T20:34:04.312Z,58.80
2024-02-28T20:36:35.334Z,59.08
2024-02-28T20:39:03.612Z,59.53
2024-02-28T20:41:34.698Z,65.13
2024-02-28T20:44:03.274Z,64.38
2024-02-28T20:46:31.962Z,65.15
2024-02-28T20:49:00.486Z,63.53
2024-02-28T20:51:28.754Z,66.30
2024-02-28T20:53:58.748Z,61.70
2024-02-28T20:56:27.723Z,69.32
2024-02-28T20:58:57.136Z,66.93
2024-02-28T21:01:28.264Z,72.35
2024-02-28T21:03:56.917Z,72.03
2024-02-28T21:06:25.164Z,72.35
2024-02-28T21:08:56.746Z,74.22
2024-02-28T21:11:26.367Z,82.13
2024-02-28T21:13:56.470Z,76.55
2024-02-28T21:16:25.863Z,74.65
2024-02-28T21:18:56.080Z,78.25
2024-02-28T21:21:27.215Z,66.28
2024-02-28T21:23:55.422Z,74.80
2024-02-28T21:26:25.357Z,70.22
2024-02-28T21:28:53.601Z,71.38
2024-02-28T21:31:21.997Z,72.35
2024-02-28T21:33:50.207Z,67.05
2024-02-28T21:36:18.547Z,77.57
2024-02-28T21:38:46.908Z,65.78
2024-02-28T21:41:16.330Z,71.50
2024-02-28T21:43:46.037Z,74.28
2024-02-28T21:46:14.160Z,72.25
2024-02-28T21:48:43.404Z,74.63
2024-02-28T21:51:12.209Z,74.80
2024-02-28T21:53:40.318Z,76.05
2024-02-28T21:56:10.355Z,94.43
2024-02-28T21:58:38.373Z,94.22
2024-02-28T22:01:10.326Z,80.18
2024-02-28T22:03:38.597Z,77.22
2024-02-28T22:06:09.878Z,84.10
2024-02-28T22:08:38.857Z,81.55
2024-02-28T22:11:09.726Z,78.95
2024-02-28T22:13:37.848Z,80.18
2024-02-28T22:16:07.730Z,79.38
2024-02-28T22:18:36.046Z,75.78
2024-02-28T22:21:04.533Z,74.43
2024-02-28T22:23:34.515Z,87.07
2024-02-28T22:26:02.857Z,86.55
2024-02-28T22:28:30.965Z,73.72
2024-02-28T22:31:01.748Z,70.88
2024-02-28T22:33:31.288Z,68.03
2024-02-28T22:35:59.407Z,68.88
2024-02-28T22:38:27.396Z,74.85
2024-02-28T22:40:55.858Z,71.47
2024-02-28T22:43:23.858Z,72.70
2024-02-28T22:45:51.954Z,65.80
2024-02-28T22:48:20.088Z,73.53
2024-02-28T22:50:49.561Z,70.35
2024-02-28T22:53:17.650Z,70.28
2024-02-28T22:55:45.972Z,60.80
2024-02-28T22:58:14.190Z,73.22
2024-02-28T23:00:44.094Z,67.28
2024-02-28T23:03:14.867Z,62.80
2024-02-28T23:05:43.153Z,67.18
2024-02-28T23:08:12.737Z,64.75
2024-02-28T23:10:40.882Z,61.70
2024-02-28T23:13:09.060Z,66.75
2024-02-28T23:15:37.200Z,66.57
2024-02-28T23:18:11.826Z,72.18
2024-02-28T23:20:40.700Z,69.57
2024-02-28T23:23:08.835Z,76.72
2024-02-28T23:25:38.358Z,74.20
2024-02-28T23:28:09.665Z,71.50
2024-02-28T23:30:38.015Z,76.40
2024-02-28T23:33:08.161Z,71.28
2024-02-28T23:35:36.533Z,69.85
2024-02-28T23:38:06.364Z,76.20
2024-02-28T23:40:33.697Z,77.80
2024-02-28T23:43:03.357Z,73.97
2024-02-28T23:45:31.538Z,68.22
2024-02-28T23:47:59.704Z,79.40
2024-02-28T23:50:28.834Z,80.63
2024-02-28T23:52:57.004Z,86.40
2024-02-28T23:55:25.195Z,83.15
2024-02-28T23:57:53.273Z,82.80
